Terminal Aerodrome Forecast
Issued by NWS Cleveland, OH

Home | Current Version | Previous Version | Graphics & Text | Print | Product List | Glossary Off
Versions: 1 2 3 4 5 6 7 8 9 10 11 12 13 14 15 16 17 18 19 20 21 22 23 24 25 26

715
FTUS41 KCLE 291729
TAFMFD
TAF
KMFD 291729Z 2918/3018 30005KT 3SM BR OVC003
     FM292000 32008KT P6SM OVC008
     FM292200 36008KT P6SM BKN025
     FM300200 06004KT P6SM SCT025
     FM301200 09006KT P6SM OVC100=

USA.gov is the U.S. government's official web portal to all federal, state and local government web resources and services.